الصفحة الرئيسية
METAR-TAF:

METAR-TAF

مطار :

بوريرام, تايلاند

دائرة عرض: 15-13-46N, خط طول: 103-15-04E, ارتفاع: 180 متر

مراقبة الطقس الحالي

تاريخ ووقت الإصدار 45 دقيقة قبل الساعة 23:00UTC
ريح 2 عقدة من الجنوب
درجة الحرارة 25°درجة مئوية
الرطوبة 100%
ضغط 1009 hPa
الرؤية: 8000 متر
غيوم قليلة على ارتفاع 4000 قدم
غيوم متفرقة على ارتفاع 10000 قدم

METAR: VTUO 032300Z 18002KT 8000 FEW040 SCT100 25/25 Q1009 NOSIG

زمن: 06:45 (23:45 UTC)

توقعات

تاريخ ووقت الإصدار 6ساعات و 45 دقيقة قبل الساعة 17:00UTC
التوقعات صالحة من03 الساعة 18 UTC إلى 04 الساعة 18 UTC
ريح 5 عقدة من الجنوب/الجنوب الغربي
الرؤية: 9000 متر
غيوم قليلة على ارتفاع 3000 قدم
مؤقت
من 04 الساعة 08 UTC إلى 04 الساعة 12 UTC
ريح 15 عقدةمن اتجاهات متغيرة
الرؤية: 4000 متر
غيوم قليلة على ارتفاع 1800 قدم, مزنة ركامية.
غيوم مفككة على ارتفاع 2500 قدم
عاصفة رعدية, مطر

TAF: VTUO 031700Z 0318/0418 20005KT 9000 FEW030 TEMPO 0408/0412 VRB15KT 4000 TSRA FEW018CB BKN025

أرصاد الطقس والتوقعات من أكثر من 4000 مطار (تقارير الطقس للمطار METAR والتنبؤ بالطقس بالمطارTAF).

المحطات المتاحة هي النقط الصفراء والحمراء على الخريطة.

حرك المؤشر فوق النقطة لمعرفة اسم المحطة.

ثم انقر لمعرفة أرصاد وتوقعات الطقس.

لتغيير الخارطة: اضغط على الأزرار الخضراء مع رمز الصليب الأسود للتكبير. على الزر الأخضر مع شرطة للتصغير، أو على الأسهم الخضراء للخرائط المجاورة.


METAR-TAF: